Time;durP1;ratioP1;P1;durP2;ratioP2;P2;SDS_P1;SDS_P2;PMS_P1;PMS_P2;Temp;Humidity;BMP_temperature;BMP_pressure;BME280_temperature;BME280_humidity;BME280_pressure;Samples;Min_cycle;Max_cycle;Signal;HPM_P1;HPM_P2
2021/11/02 00:01:06;;;;;;;22.03;16.10;;;11.70;92.30;;;;;;5106985;28;20451;-59
2021/11/02 00:03:33;;;;;;;21.20;15.87;;;;;;;;;;5103397;28;20936;-59
2021/11/02 00:05:58;;;;;;;24.73;15.27;;;;;;;;;;5103581;28;20490;-59
2021/11/02 00:08:24;;;;;;;20.90;16.10;;;;;;;;;;5108375;28;20415;-58
2021/11/02 00:10:50;;;;;;;24.00;14.93;;;;;;;;;;5107641;28;20411;-59
2021/11/02 00:13:18;;;;;;;22.30;15.90;;;11.30;85.00;;;;;;5102347;28;20456;-59
2021/11/02 00:15:49;;;;;;;19.90;14.83;;;11.30;94.50;;;;;;5109184;28;20926;-59
2021/11/02 00:18:15;;;;;;;21.43;15.10;;;11.50;86.10;;;;;;5091996;28;20727;-59
2021/11/02 00:20:40;;;;;;;23.37;15.40;;;11.40;84.10;;;;;;5102128;28;20463;-57
2021/11/02 00:23:08;;;;;;;18.53;14.53;;;;;;;;;;5107769;28;20199;-59
2021/11/02 00:25:34;;;;;;;18.93;14.97;;;11.20;85.80;;;;;;5096368;28;20235;-58
2021/11/02 00:28:01;;;;;;;18.30;14.73;;;;;;;;;;5109143;28;20589;-59
2021/11/02 00:30:28;;;;;;;20.90;15.63;;;11.50;90.70;;;;;;5103446;28;20514;-58
2021/11/02 00:32:55;;;;;;;20.03;15.77;;;11.40;74.20;;;;;;5098483;28;20448;-59
2021/11/02 00:35:23;;;;;;;22.80;16.80;;;11.40;75.10;;;;;;5095950;28;20851;-59
2021/11/02 00:37:49;;;;;;;20.20;15.80;;;;;;;;;;5101409;28;20449;-59
2021/11/02 00:40:17;;;;;;;23.87;17.37;;;11.30;74.50;;;;;;5083583;28;20487;-59
2021/11/02 00:42:51;;;;;;;23.00;17.47;;;;;;;;;;5106206;28;20418;-59
2021/11/02 00:45:28;;;;;;;22.57;17.00;;;11.30;79.50;;;;;;5105487;28;20499;-59
2021/11/02 00:47:54;;;;;;;21.57;16.30;;;;;;;;;;5108431;28;20564;-58
2021/11/02 00:50:20;;;;;;;24.00;16.80;;;11.30;91.60;;;;;;5091566;28;20440;-59
2021/11/02 00:52:45;;;;;;;25.80;17.73;;;10.70;90.60;;;;;;5104626;28;20919;-59
2021/11/02 00:55:11;;;;;;;21.60;16.37;;;;;;;;;;5100017;28;20715;-59
2021/11/02 00:57:37;;;;;;;20.83;15.03;;;11.30;93.70;;;;;;5098225;28;20223;-60
2021/11/02 01:00:06;;;;;;;19.50;13.40;;;11.50;94.30;;;;;;5098928;28;20444;-59
2021/11/02 01:02:32;;;;;;;16.53;12.80;;;;;;;;;;5096171;28;20860;-59
2021/11/02 01:04:57;;;;;;;18.03;12.97;;;11.40;92.70;;;;;;5100929;28;20435;-59
2021/11/02 01:07:23;;;;;;;14.87;11.33;;;;;;;;;;5104348;28;20437;-58
2021/11/02 01:09:49;;;;;;;16.60;11.60;;;;;;;;;;5103156;28;20256;-59
2021/11/02 01:12:15;;;;;;;11.87;9.23;;;;;;;;;;5101518;28;20923;-58
2021/11/02 01:14:42;;;;;;;12.57;10.30;;;11.40;87.10;;;;;;5092850;28;20459;-57
2021/11/02 01:17:07;;;;;;;13.40;9.80;;;11.00;87.60;;;;;;5099886;28;20818;-58
2021/11/02 01:19:33;;;;;;;11.67;8.73;;;;;;;;;;5108668;28;20474;-57
2021/11/02 01:21:59;;;;;;;12.50;8.30;;;;;;;;;;5112751;28;20195;-58
2021/11/02 01:24:25;;;;;;;11.90;9.50;;;10.70;86.00;;;;;;5102146;28;20420;-58
2021/11/02 01:26:51;;;;;;;9.90;8.27;;;;;;;;;;5110194;28;20444;-59
2021/11/02 01:29:17;;;;;;;8.83;7.93;;;;;;;;;;5113896;28;20190;-57
2021/11/02 01:31:44;;;;;;;10.77;8.13;;;11.40;77.00;;;;;;5108895;28;20472;-58
2021/11/02 01:34:10;;;;;;;8.80;7.17;;;11.30;79.90;;;;;;5113761;28;20429;-58
2021/11/02 01:36:36;;;;;;;7.90;7.03;;;11.10;83.30;;;;;;5111873;28;20458;-57
2021/11/02 01:39:04;;;;;;;7.80;6.90;;;10.90;75.70;;;;;;5109164;28;20430;-58
2021/11/02 01:41:30;;;;;;;7.60;6.23;;;11.10;73.10;;;;;;5113808;28;20447;-58
2021/11/02 01:43:57;;;;;;;6.70;5.67;;;11.20;62.20;;;;;;5106510;28;20499;-58
2021/11/02 01:46:31;;;;;;;8.03;5.80;;;11.10;65.60;;;;;;5104937;28;20298;-57
2021/11/02 01:48:59;;;;;;;9.10;6.60;;;11.20;83.00;;;;;;5098041;28;20455;-58
2021/11/02 01:51:26;;;;;;;8.77;6.53;;;11.10;74.10;;;;;;5110291;28;20444;-58
2021/11/02 01:53:53;;;;;;;7.43;5.80;;;11.00;86.70;;;;;;5103211;28;20494;-57
2021/11/02 01:56:21;;;;;;;10.23;6.63;;;;;;;;;;5110729;28;20463;-59
2021/11/02 01:58:49;;;;;;;9.10;7.10;;;;;;;;;;5101653;28;20514;-59
2021/11/02 02:01:22;;;;;;;8.53;6.07;;;11.30;78.80;;;;;;5089023;28;20547;-58
2021/11/02 02:03:59;;;;;;;9.00;6.63;;;10.90;86.10;;;;;;5108271;28;20448;-58
2021/11/02 02:06:40;;;;;;;8.63;6.77;;;11.00;81.10;;;;;;5109725;28;20439;-58
2021/11/02 02:09:20;;;;;;;7.40;6.60;;;11.00;79.40;;;;;;5108619;28;20794;-58
2021/11/02 02:11:51;;;;;;;10.13;6.13;;;11.20;85.40;;;;;;5099294;28;20497;-58
2021/11/02 02:14:46;;;;;;;12.63;7.47;;;11.20;89.10;;;;;;5100141;28;20436;-59
2021/11/02 02:17:18;;;;;;;10.03;7.50;;;11.40;83.40;;;;;;5105550;28;20428;-58
2021/11/02 02:19:55;;;;;;;9.00;6.43;;;11.00;88.00;;;;;;5104560;28;20467;-58
2021/11/02 02:22:41;;;;;;;9.17;6.60;;;;;;;;;;5093796;28;20411;-59
2021/11/02 02:25:34;;;;;;;8.50;6.97;;;11.10;83.00;;;;;;5081095;28;20874;-59
2021/11/02 02:28:20;;;;;;;9.67;6.70;;;10.90;93.00;;;;;;5097874;28;20498;-59
2021/11/02 02:30:57;;;;;;;10.70;6.03;;;11.00;89.60;;;;;;5106763;28;20445;-59
2021/11/02 02:33:27;;;;;;;8.80;7.30;;;10.80;93.00;;;;;;5106295;28;21075;-58
2021/11/02 02:35:54;;;;;;;8.10;6.20;;;10.50;92.70;;;;;;5112065;28;20960;-58
2021/11/02 02:38:21;;;;;;;7.50;6.00;;;10.80;96.30;;;;;;5104828;28;20739;-59
2021/11/02 02:40:49;;;;;;;7.70;5.73;;;11.20;97.10;;;;;;5093919;28;20440;-58
2021/11/02 02:43:16;;;;;;;6.57;5.40;;;10.80;92.60;;;;;;5102015;28;20508;-58
2021/11/02 02:45:43;;;;;;;7.80;5.00;;;11.00;91.60;;;;;;5100281;28;20547;-58
2021/11/02 02:48:10;;;;;;;4.80;4.20;;;10.90;86.60;;;;;;5099855;28;20455;-58
2021/11/02 02:50:37;;;;;;;4.53;4.10;;;;;;;;;;5103480;28;20590;-58
2021/11/02 02:53:03;;;;;;;6.10;4.60;;;10.90;82.80;;;;;;5103461;28;20503;-59
2021/11/02 02:55:31;;;;;;;6.30;4.00;;;11.00;84.00;;;;;;5096930;28;20452;-58
2021/11/02 02:57:58;;;;;;;4.67;3.80;;;10.80;76.00;;;;;;5109595;28;20568;-59
2021/11/02 03:00:24;;;;;;;4.70;3.67;;;10.80;90.00;;;;;;5104852;28;20447;-58
2021/11/02 03:02:51;;;;;;;4.53;3.67;;;10.70;84.60;;;;;;5108525;28;20775;-59
2021/11/02 03:05:18;;;;;;;4.87;3.37;;;11.00;82.30;;;;;;5107415;28;20206;-58
2021/11/02 03:07:44;;;;;;;4.90;2.93;;;10.70;85.00;;;;;;5106960;28;20480;-59
2021/11/02 03:10:11;;;;;;;4.93;3.17;;;10.70;90.00;;;;;;5110724;28;20430;-59
2021/11/02 03:12:41;;;;;;;4.07;2.57;;;10.80;73.70;;;;;;5105926;28;20444;-58
2021/11/02 03:18:16;;;;;;;4.17;2.20;;;10.80;68.30;;;;;;5110341;28;20919;-60
2021/11/02 03:55:34;;;;;;;3.17;1.63;;;10.60;80.50;;;;;;5096018;28;20444;-59
2021/11/02 03:58:05;;;;;;;1.60;1.50;;;10.70;72.80;;;;;;5100194;28;20820;-58
2021/11/02 05:11:09;;;;;;;2.77;1.80;;;10.60;90.30;;;;;;5101541;28;20439;-59
2021/11/02 05:46:59;;;;;;;2.73;1.50;;;;;;;;;;5105671;28;20508;-57
2021/11/02 05:49:49;;;;;;;2.80;1.73;;;;;;;;;;5104622;28;20961;-57
2021/11/02 05:59:59;;;;;;;3.03;1.90;;;;;;;;;;5102758;28;20190;-57
2021/11/02 06:05:13;;;;;;;2.87;1.73;;;;;;;;;;5105058;28;20996;-57
2021/11/02 06:08:03;;;;;;;2.07;1.40;;;10.90;70.40;;;;;;5102765;28;20415;-58
2021/11/02 06:29:31;;;;;;;1.73;1.60;;;;;;;;;;5093609;28;20418;-58
2021/11/02 06:32:04;;;;;;;4.60;3.10;;;;;;;;;;5092789;28;20438;-58
2021/11/02 06:34:56;;;;;;;2.23;2.03;;;10.90;64.20;;;;;;5101578;28;20522;-58
2021/11/02 06:40:14;;;;;;;2.50;2.30;;;;;;;;;;5112686;28;20440;-58
2021/11/02 07:17:30;;;;;;;3.50;3.20;;;11.00;54.60;;;;;;5098805;28;20936;-58
2021/11/02 07:23:01;;;;;;;3.13;2.83;;;11.20;50.90;;;;;;5096231;28;20439;-58
2021/11/02 07:25:57;;;;;;;3.53;3.20;;;11.10;49.90;;;;;;5095500;28;20441;-59
2021/11/02 08:47:24;;;;;;;3.97;3.67;;;13.10;1.00;;;;;;5076839;28;20465;-61
2021/11/02 08:49:50;;;;;;;4.40;4.00;;;13.00;1.00;;;;;;5090541;28;20425;-60
2021/11/02 08:52:16;;;;;;;8.43;4.37;;;;;;;;;;5090131;28;20491;-61
2021/11/02 08:54:44;;;;;;;6.27;4.60;;;13.20;1.00;;;;;;5090483;28;20192;-59
2021/11/02 08:57:10;;;;;;;5.43;3.83;;;13.10;1.00;;;;;;5071884;28;20410;-60
2021/11/02 08:59:36;;;;;;;4.40;4.00;;;13.30;1.00;;;;;;5090421;28;20800;-60
2021/11/02 09:02:07;;;;;;;4.30;3.90;;;13.10;1.00;;;;;;5090068;28;20434;-59
2021/11/02 09:04:38;;;;;;;4.00;3.60;;;13.20;1.00;;;;;;5090404;28;20176;-59
2021/11/02 09:07:05;;;;;;;5.73;3.50;;;13.20;1.00;;;;;;5092932;28;20997;-59
2021/11/02 09:09:40;;;;;;;4.67;4.27;;;13.20;1.00;;;;;;5090077;28;20971;-60
2021/11/02 09:12:07;;;;;;;4.27;3.87;;;13.40;1.00;;;;;;5073146;28;20430;-59
2021/11/02 09:14:37;;;;;;;5.47;4.70;;;13.10;1.00;;;;;;5062146;28;20453;-60
2021/11/02 09:17:04;;;;;;;4.50;4.10;;;13.20;1.00;;;;;;5096083;28;21006;-59
2021/11/02 09:19:32;;;;;;;4.90;3.50;;;13.40;1.00;;;;;;5089989;28;20499;-59
2021/11/02 09:21:58;;;;;;;5.03;3.97;;;13.70;1.00;;;;;;5072631;28;20766;-60
2021/11/02 09:24:24;;;;;;;5.00;4.53;;;13.10;1.00;;;;;;5089857;28;20412;-60
2021/11/02 09:26:50;;;;;;;5.10;4.60;;;13.50;1.00;;;;;;5089965;28;20453;-59
2021/11/02 09:29:18;;;;;;;6.60;4.00;;;13.60;1.00;;;;;;5089979;28;20438;-60
2021/11/02 09:31:45;;;;;;;5.03;4.40;;;13.40;1.00;;;;;;5102130;28;20528;-59
2021/11/02 09:34:11;;;;;;;4.67;4.27;;;13.50;1.00;;;;;;5110334;28;20418;-61
2021/11/02 09:36:48;;;;;;;5.60;4.40;;;13.50;1.00;;;;;;5107073;28;20420;-61
2021/11/02 09:39:14;;;;;;;4.80;4.40;;;14.20;1.00;;;;;;5090150;28;20456;-60
2021/11/02 09:41:58;;;;;;;5.10;4.60;;;13.90;1.00;;;;;;5091511;28;20433;-60
2021/11/02 09:44:45;;;;;;;4.90;4.50;;;13.70;1.00;;;;;;5093490;28;20194;-60
2021/11/02 09:47:48;;;;;;;4.70;4.30;;;13.70;1.00;;;;;;5093313;28;20907;-59
2021/11/02 09:50:44;;;;;;;6.00;4.93;;;13.70;1.00;;;;;;5093584;28;20428;-60
2021/11/02 09:53:44;;;;;;;4.60;4.20;;;13.70;1.00;;;;;;5093275;28;20840;-59
2021/11/02 09:56:48;;;;;;;7.63;5.47;;;13.70;1.00;;;;;;5093467;28;20494;-60
2021/11/02 09:59:17;;;;;;;5.67;5.03;;;;;;;;;;5096754;28;20440;-59
2021/11/02 10:01:47;;;;;;;5.63;5.13;;;14.10;1.00;;;;;;5093096;28;20416;-60
2021/11/02 10:04:28;;;;;;;5.77;5.13;;;14.20;1.00;;;;;;5093250;28;20417;-61
2021/11/02 10:07:07;;;;;;;5.43;4.93;;;14.30;1.00;;;;;;5093039;28;20955;-60
2021/11/02 10:09:38;;;;;;;6.67;5.37;;;14.30;1.00;;;;;;5074580;28;20445;-60
2021/11/02 10:12:23;;;;;;;5.40;4.80;;;14.20;1.00;;;;;;5093106;28;20540;-61
2021/11/02 10:15:11;;;;;;;5.40;4.70;;;14.60;1.00;;;;;;5074432;28;20416;-60
2021/11/02 10:17:45;;;;;;;5.93;5.13;;;14.60;1.00;;;;;;5092582;28;20413;-60
2021/11/02 10:20:38;;;;;;;5.30;4.87;;;14.60;1.00;;;;;;5074903;28;20409;-60
2021/11/02 10:23:26;;;;;;;5.97;5.43;;;14.80;1.00;;;;;;5092901;28;20463;-59
2021/11/02 10:26:17;;;;;;;10.20;6.10;;;14.70;1.00;;;;;;5092673;28;20539;-59
2021/11/02 10:28:42;;;;;;;6.57;5.57;;;15.00;1.00;;;;;;5092500;28;20417;-60
2021/11/02 10:31:19;;;;;;;6.00;5.40;;;14.70;1.00;;;;;;5093203;28;20400;-60
2021/11/02 10:34:03;;;;;;;9.17;6.80;;;14.70;1.00;;;;;;5092470;28;20184;-60
2021/11/02 10:36:35;;;;;;;8.07;5.20;;;14.70;1.00;;;;;;5093077;28;20396;-61
2021/11/02 10:39:09;;;;;;;6.97;5.63;;;14.90;1.00;;;;;;5092311;28;20440;-60
2021/11/02 10:42:08;;;;;;;6.00;5.40;;;17.00;1.00;;;;;;5092586;28;20412;-59
2021/11/02 10:44:47;;;;;;;7.00;6.07;;;15.40;1.00;;;;;;5076813;28;20774;-59
2021/11/02 10:47:34;;;;;;;6.20;5.70;;;15.40;1.00;;;;;;5092302;28;20810;-60
2021/11/02 10:50:05;;;;;;;6.80;5.37;;;15.40;1.00;;;;;;5092161;28;20501;-60
2021/11/02 10:52:32;;;;;;;5.77;4.20;;;15.60;1.00;;;;;;5091478;28;20447;-62
2021/11/02 10:55:18;;;;;;;6.37;4.13;;;15.60;1.00;;;;;;5102301;28;20768;-60
2021/11/02 10:58:21;;;;;;;6.07;4.27;;;15.30;1.00;;;;;;5112461;28;20498;-60
2021/11/02 11:00:50;;;;;;;5.23;3.70;;;15.30;1.00;;;;;;5093800;28;20406;-59
2021/11/02 11:03:16;;;;;;;4.47;3.47;;;;;;;;;;5112562;28;20924;-60
2021/11/02 11:05:54;;;;;;;3.90;3.50;;;15.20;1.00;;;;;;5093868;28;20457;-60
2021/11/02 11:08:31;;;;;;;3.80;3.40;;;14.90;1.00;;;;;;5112368;28;20532;-59
2021/11/02 11:10:58;;;;;;;6.53;3.63;;;15.10;1.00;;;;;;5112044;28;20437;-60
2021/11/02 11:13:29;;;;;;;3.30;3.00;;;15.10;1.00;;;;;;5093583;28;20532;-60
2021/11/02 11:16:06;;;;;;;7.00;4.40;;;15.40;1.00;;;;;;5111916;28;20443;-59
2021/11/02 11:18:43;;;;;;;7.03;3.23;;;15.60;1.00;;;;;;5112207;28;20418;-59
2021/11/02 11:21:10;;;;;;;3.97;2.50;;;;;;;;;;5111987;28;20663;-60
2021/11/02 11:23:37;;;;;;;5.30;3.33;;;15.40;1.00;;;;;;5111839;28;20403;-60
2021/11/02 11:26:08;;;;;;;6.50;3.07;;;15.40;1.00;;;;;;5111575;28;20475;-59
2021/11/02 11:28:39;;;;;;;6.10;2.93;;;15.60;1.00;;;;;;5111885;28;20427;-60
2021/11/02 11:31:05;;;;;;;4.73;2.90;;;15.50;1.00;;;;;;5111766;28;20433;-60
2021/11/02 11:33:34;;;;;;;5.23;2.23;;;15.40;1.00;;;;;;5095191;28;20412;-60
2021/11/02 11:36:05;;;;;;;4.40;3.00;;;15.60;1.00;;;;;;5091184;28;20774;-60
2021/11/02 11:38:42;;;;;;;3.20;2.90;;;15.50;1.00;;;;;;5091546;28;20416;-60
2021/11/02 11:41:11;;;;;;;3.47;2.10;;;15.70;1.00;;;;;;5096232;28;20417;-60
2021/11/02 11:43:39;;;;;;;3.50;2.30;;;15.70;1.00;;;;;;5091318;28;20426;-59
2021/11/02 11:46:05;;;;;;;3.00;2.10;;;;;;;;;;5090805;28;20496;-60
2021/11/02 11:48:32;;;;;;;5.50;1.90;;;15.80;1.00;;;;;;5091020;28;20431;-60
2021/11/02 11:51:01;;;;;;;2.93;2.40;;;15.90;1.00;;;;;;5090873;28;20894;-60
2021/11/02 11:53:29;;;;;;;3.70;1.70;;;15.70;1.00;;;;;;5091244;28;20908;-60
2021/11/02 11:56:11;;;;;;;2.30;1.43;;;15.80;1.00;;;;;;5091183;28;20427;-60
2021/11/02 11:58:51;;;;;;;5.53;1.50;;;15.70;1.00;;;;;;5091219;28;20451;-60
2021/11/02 12:01:25;;;;;;;5.13;1.50;;;15.60;1.00;;;;;;5090559;28;20488;-59
2021/11/02 12:04:14;;;;;;;1.53;1.43;;;15.60;1.00;;;;;;5090839;28;20437;-60
2021/11/02 12:06:50;;;;;;;4.13;3.60;;;15.50;1.00;;;;;;5099377;28;20540;-59
2021/11/02 12:09:16;;;;;;;2.70;1.87;;;;;;;;;;5090572;28;20438;-60
2021/11/02 12:11:42;;;;;;;4.60;1.70;;;14.90;1.00;;;;;;5091262;28;20413;-59
2021/11/02 12:14:10;;;;;;;3.90;1.17;;;;;;;;;;5091510;28;20436;-59
2021/11/02 12:16:44;;;;;;;4.97;1.77;;;14.60;1.00;;;;;;5090747;28;20424;-59
2021/11/02 12:19:21;;;;;;;1.93;1.73;;;14.50;1.00;;;;;;5091106;28;20434;-59
2021/11/02 12:22:01;;;;;;;2.90;1.70;;;14.40;1.00;;;;;;5090794;28;20486;-59
2021/11/02 12:24:31;;;;;;;4.33;2.13;;;;;;;;;;5072257;28;20510;-60
2021/11/02 12:27:10;;;;;;;3.93;2.07;;;14.50;1.00;;;;;;5090752;28;20491;-60
2021/11/02 12:29:37;;;;;;;5.83;2.53;;;14.50;1.00;;;;;;5090377;28;20433;-59
2021/11/02 12:32:07;;;;;;;5.63;2.40;;;14.50;1.00;;;;;;5092798;28;20490;-60
2021/11/02 12:35:04;;;;;;;4.10;2.70;;;14.60;1.00;;;;;;5090233;28;20961;-60
2021/11/02 12:37:32;;;;;;;3.53;2.10;;;14.70;1.00;;;;;;5091447;28;20795;-59
2021/11/02 12:40:17;;;;;;;4.67;2.53;;;14.90;1.00;;;;;;5090755;28;20444;-59
2021/11/02 12:42:44;;;;;;;2.93;2.30;;;14.50;1.00;;;;;;5090414;28;20415;-61
2021/11/02 12:45:12;;;;;;;4.40;2.13;;;14.40;1.00;;;;;;5090755;28;20445;-60
2021/11/02 12:47:38;;;;;;;5.17;2.20;;;;;;;;;;5089800;28;20457;-59
2021/11/02 12:50:06;;;;;;;8.00;5.50;;;14.30;1.00;;;;;;5090434;28;20412;-60
2021/11/02 12:52:35;;;;;;;3.57;2.43;;;14.40;1.00;;;;;;5089994;28;20408;-59
2021/11/02 12:55:13;;;;;;;2.50;1.60;;;14.30;1.00;;;;;;5072052;28;20869;-60
2021/11/02 12:57:40;;;;;;;7.10;1.73;;;14.10;1.00;;;;;;5090093;28;20425;-60
2021/11/02 13:00:40;;;;;;;2.20;2.00;;;14.20;1.00;;;;;;5090153;28;20433;-60
2021/11/02 13:03:09;;;;;;;4.13;2.10;;;14.30;1.00;;;;;;5089898;28;20607;-61
2021/11/02 13:05:37;;;;;;;5.70;3.13;;;14.40;1.00;;;;;;5089662;28;20497;-59
2021/11/02 13:08:10;;;;;;;3.83;2.00;;;14.40;1.00;;;;;;5090275;28;20400;-60
2021/11/02 13:10:37;;;;;;;3.70;2.03;;;14.50;1.00;;;;;;5089839;28;20991;-61
2021/11/02 13:13:09;;;;;;;4.53;2.20;;;14.60;1.00;;;;;;5106351;28;20807;-60
2021/11/02 13:15:52;;;;;;;5.47;2.03;;;14.70;1.00;;;;;;5110338;28;20946;-59
2021/11/02 13:18:39;;;;;;;3.53;2.10;;;14.70;1.00;;;;;;5114481;28;20458;-59
2021/11/02 13:21:19;;;;;;;2.20;2.00;;;14.70;1.00;;;;;;5099635;28;20422;-59
2021/11/02 13:23:50;;;;;;;3.43;3.13;;;14.70;1.00;;;;;;5093620;28;20463;-60
2021/11/02 13:26:18;;;;;;;3.23;2.37;;;14.80;1.00;;;;;;5093488;28;20868;-59
2021/11/02 13:28:44;;;;;;;3.43;2.50;;;14.90;1.00;;;;;;5093438;28;20434;-59
2021/11/02 13:31:29;;;;;;;8.50;2.40;;;14.90;1.00;;;;;;5093851;28;20463;-61
2021/11/02 13:34:02;;;;;;;2.97;2.03;;;14.80;1.00;;;;;;5093590;28;20434;-59
2021/11/02 13:36:29;;;;;;;4.30;2.17;;;14.40;1.00;;;;;;5096375;28;20792;-60
2021/11/02 13:39:04;;;;;;;3.87;2.10;;;14.50;1.00;;;;;;5093325;28;20490;-59
2021/11/02 13:41:35;;;;;;;3.70;1.93;;;14.60;1.00;;;;;;5093497;28;20404;-60
2021/11/02 13:44:06;;;;;;;1.60;1.50;;;14.80;1.00;;;;;;5093414;28;20419;-59
2021/11/02 13:46:40;;;;;;;4.27;1.40;;;14.60;1.00;;;;;;5093647;28;20557;-59
2021/11/02 13:49:08;;;;;;;3.03;2.00;;;14.60;1.00;;;;;;5093280;28;20799;-60
2021/11/02 13:51:35;;;;;;;2.03;1.83;;;14.60;1.00;;;;;;5093177;28;20425;-59
2021/11/02 13:54:01;;;;;;;3.17;2.10;;;;;;;;;;5074816;28;20891;-60
2021/11/02 13:56:32;;;;;;;4.73;2.10;;;14.90;1.00;;;;;;5093244;28;20781;-60
2021/11/02 13:58:59;;;;;;;4.43;2.10;;;14.60;1.00;;;;;;5093024;28;20424;-60
2021/11/02 14:01:47;;;;;;;1.87;1.73;;;14.80;1.00;;;;;;5095100;28;20455;-61
2021/11/02 14:04:39;;;;;;;2.03;1.83;;;14.70;1.00;;;;;;5092569;28;20698;-60
2021/11/02 14:07:24;;;;;;;3.03;2.00;;;14.50;1.00;;;;;;5092305;28;20525;-60
2021/11/02 14:09:57;;;;;;;3.37;2.70;;;14.70;1.00;;;;;;5092724;28;20407;-60
2021/11/02 14:12:27;;;;;;;3.37;2.27;;;14.60;1.00;;;;;;5092633;28;20496;-59
2021/11/02 14:15:18;;;;;;;2.97;2.30;;;14.40;1.00;;;;;;5092839;28;20412;-60
2021/11/02 14:17:45;;;;;;;5.10;3.20;;;14.40;1.00;;;;;;5093646;28;20496;-59
2021/11/02 14:20:11;;;;;;;5.70;3.10;;;14.60;1.00;;;;;;5113163;28;20485;-59
2021/11/02 14:22:52;;;;;;;2.70;2.20;;;14.30;1.00;;;;;;5094988;28;20409;-60
2021/11/02 14:25:36;;;;;;;4.60;2.43;;;14.20;1.00;;;;;;5091190;28;20526;-60
2021/11/02 14:28:05;;;;;;;5.63;2.87;;;13.90;1.00;;;;;;5092321;28;20783;-60
2021/11/02 14:30:31;;;;;;;4.90;2.53;;;;;;;;;;5092557;28;20453;-59
2021/11/02 14:33:01;;;;;;;4.20;2.20;;;13.70;1.00;;;;;;5092625;28;20468;-60
2021/11/02 14:35:50;;;;;;;3.33;2.97;;;13.50;1.00;;;;;;5104576;28;20792;-60
2021/11/02 14:38:15;;;;;;;4.10;2.73;;;;;;;;;;5112615;28;20855;-58
2021/11/02 14:40:45;;;;;;;4.40;2.27;;;13.50;1.00;;;;;;5113020;28;20531;-59
2021/11/02 14:43:13;;;;;;;5.57;3.43;;;13.50;1.00;;;;;;5112557;28;20520;-59
2021/11/02 14:45:39;;;;;;;3.27;2.60;;;;;;;;;;5112411;28;20436;-61
2021/11/02 14:48:24;;;;;;;3.63;2.30;;;;;;;;;;5112370;28;20441;-61
2021/11/02 14:51:00;;;;;;;3.90;3.40;;;13.70;1.00;;;;;;5112651;28;20399;-60
2021/11/02 14:53:28;;;;;;;3.20;2.63;;;13.30;1.00;;;;;;5095359;28;22656;-60
2021/11/02 14:56:03;;;;;;;3.70;2.23;;;13.70;1.00;;;;;;5109950;28;20407;-62
2021/11/02 14:58:41;;;;;;;3.67;2.50;;;13.70;1.00;;;;;;5112011;28;20436;-60
2021/11/02 15:01:11;;;;;;;3.37;2.70;;;13.80;1.00;;;;;;5097902;28;20407;-60
2021/11/02 15:03:38;;;;;;;2.70;2.30;;;13.60;1.00;;;;;;5094447;28;20495;-59
2021/11/02 15:06:06;;;;;;;3.17;2.87;;;13.80;1.00;;;;;;5091507;28;20460;-60
2021/11/02 15:08:34;;;;;;;5.30;2.60;;;13.60;1.00;;;;;;5091839;28;20400;-61
2021/11/02 15:11:10;;;;;;;5.87;2.93;;;13.80;1.00;;;;;;5091763;28;20437;-60
2021/11/02 15:13:38;;;;;;;5.07;2.80;;;13.70;1.00;;;;;;5091458;28;20709;-59
2021/11/02 15:16:04;;;;;;;8.53;2.93;;;14.10;1.00;;;;;;5092054;28;21080;-60
2021/11/02 15:18:49;;;;;;;19.40;5.23;;;13.70;1.00;;;;;;5091815;28;20528;-60
2021/11/02 15:21:21;;;;;;;12.90;3.73;;;13.80;1.00;;;;;;5091722;28;20448;-60
2021/11/02 15:23:48;;;;;;;28.20;4.90;;;13.60;1.00;;;;;;5091638;28;20430;-60
2021/11/02 15:26:15;;;;;;;4.00;2.67;;;;;;;;;;5093872;28;20447;-61
2021/11/02 15:28:43;;;;;;;9.17;2.80;;;13.60;1.00;;;;;;5108903;28;20547;-59
2021/11/02 15:31:09;;;;;;;18.60;5.40;;;;;;;;;;5112012;28;20521;-59
2021/11/02 15:33:39;;;;;;;26.67;6.20;;;;;;;;;;5107796;28;20510;-59
2021/11/02 15:36:15;;;;;;;35.73;7.00;;;13.40;1.00;;;;;;5091391;28;20445;-60
2021/11/02 15:38:41;;;;;;;25.03;6.47;;;13.40;1.00;;;;;;5090274;28;20468;-59
2021/11/02 15:41:21;;;;;;;11.17;5.47;;;13.30;1.00;;;;;;5091272;28;20437;-60
2021/11/02 15:43:52;;;;;;;52.23;8.67;;;13.20;1.00;;;;;;5108864;28;20411;-61
2021/11/02 15:46:37;;;;;;;28.47;7.23;;;13.20;1.00;;;;;;5111487;28;20439;-60
2021/11/02 15:49:10;;;;;;;15.33;5.80;;;13.10;1.00;;;;;;5111541;28;20414;-59
2021/11/02 15:51:38;;;;;;;17.90;4.70;;;13.10;1.00;;;;;;5111482;28;20498;-60
2021/11/02 15:54:13;;;;;;;21.00;5.43;;;12.80;1.00;;;;;;5079078;28;20433;-61
2021/11/02 15:56:39;;;;;;;32.33;9.10;;;;;;;;;;5091036;28;20432;-59
2021/11/02 15:59:06;;;;;;;18.50;6.57;;;13.20;1.00;;;;;;5093062;28;20439;-60
2021/11/02 16:01:45;;;;;;;7.93;6.23;;;13.30;1.00;;;;;;5090958;28;20995;-61
2021/11/02 16:04:17;;;;;;;3.97;3.57;;;13.10;1.00;;;;;;5090883;28;20467;-61
2021/11/02 16:07:04;;;;;;;3.60;3.27;;;13.10;1.00;;;;;;5090792;28;20496;-60
2021/11/02 16:09:47;;;;;;;6.30;3.80;;;13.10;1.00;;;;;;5090917;28;20422;-60
2021/11/02 16:12:17;;;;;;;6.47;3.53;;;13.00;1.00;;;;;;5091279;28;20892;-60
2021/11/02 16:14:56;;;;;;;10.13;4.00;;;12.90;1.00;;;;;;5090716;28;20907;-61
2021/11/02 16:17:23;;;;;;;9.87;4.20;;;12.60;1.00;;;;;;5091426;28;20404;-60
2021/11/02 16:19:50;;;;;;;10.30;5.70;;;12.80;1.00;;;;;;5090577;28;20410;-60
2021/11/02 16:22:18;;;;;;;7.47;4.37;;;12.80;1.00;;;;;;5090806;28;20430;-62
2021/11/02 16:24:44;;;;;;;15.40;5.17;;;;;;;;;;5092173;28;20911;-61
2021/11/02 16:27:21;;;;;;;22.80;6.27;;;12.50;1.00;;;;;;5090355;28;20452;-59
2021/11/02 16:29:49;;;;;;;9.47;4.03;;;12.50;1.00;;;;;;5090526;28;20532;-61
2021/11/02 16:32:28;;;;;;;11.17;4.30;;;12.40;1.00;;;;;;5095255;28;20449;-61
2021/11/02 16:34:55;;;;;;;8.00;4.60;;;;;;;;;;5097025;28;20448;-60
2021/11/02 16:37:34;;;;;;;12.23;5.40;;;12.40;1.00;;;;;;5092022;28;20848;-61
2021/11/02 16:40:22;;;;;;;6.43;5.03;;;12.40;1.00;;;;;;5091707;28;20407;-60
2021/11/02 16:42:55;;;;;;;5.50;4.07;;;12.30;1.00;;;;;;5090414;28;20893;-59
2021/11/02 16:45:22;;;;;;;7.87;4.50;;;12.30;1.00;;;;;;5090155;28;20465;-60
2021/11/02 16:47:54;;;;;;;9.70;4.83;;;12.40;1.00;;;;;;5090015;28;20469;-61
2021/11/02 16:50:29;;;;;;;6.13;4.00;;;12.20;1.00;;;;;;5092508;28;20478;-60
2021/11/02 16:53:07;;;;;;;8.93;4.40;;;12.10;1.00;;;;;;5095754;28;20752;-60
2021/11/02 16:55:40;;;;;;;8.63;4.87;;;12.00;1.00;;;;;;5110872;28;20403;-60
2021/11/02 16:58:17;;;;;;;13.30;6.50;;;11.70;1.00;;;;;;5115099;28;20992;-60
2021/11/02 17:00:44;;;;;;;14.07;4.27;;;;;;;;;;5115035;28;20442;-60
2021/11/02 17:03:13;;;;;;;5.63;4.17;;;;;;;;;;5114691;28;20809;-60
2021/11/02 17:05:40;;;;;;;6.00;3.70;;;;;;;;;;5114680;28;20921;-60
2021/11/02 17:08:13;;;;;;;6.43;4.17;;;11.60;1.00;;;;;;5111650;28;20449;-61
2021/11/02 17:10:41;;;;;;;4.63;3.67;;;11.60;1.00;;;;;;5097903;28;20433;-60
2021/11/02 17:13:25;;;;;;;8.50;4.13;;;11.50;1.00;;;;;;5094925;28;20420;-61
2021/11/02 17:15:54;;;;;;;8.47;5.60;;;11.50;1.00;;;;;;5102689;28;20415;-61
2021/11/02 17:18:57;;;;;;;8.73;6.10;;;11.50;1.00;;;;;;5099220;28;20411;-62
2021/11/02 17:21:25;;;;;;;6.47;4.57;;;11.60;1.00;;;;;;5104123;28;20743;-59
2021/11/02 17:23:51;;;;;;;9.77;6.10;;;11.40;1.00;;;;;;5094310;28;20792;-61
2021/11/02 17:26:19;;;;;;;11.17;7.30;;;11.40;1.00;;;;;;5093649;28;20857;-60
2021/11/02 17:28:47;;;;;;;12.03;8.07;;;11.40;1.00;;;;;;5089663;28;20445;-62
2021/11/02 17:31:19;;;;;;;14.77;9.20;;;11.30;1.00;;;;;;5095224;28;20457;-61
2021/11/02 17:33:45;;;;;;;13.10;8.20;;;;;;;;;;5093774;28;20910;-61
2021/11/02 17:36:13;;;;;;;13.73;8.90;;;11.20;1.00;;;;;;5093739;28;20525;-61
2021/11/02 17:38:40;;;;;;;12.80;8.87;;;;;;;;;;5097715;28;20439;-60
2021/11/02 17:41:07;;;;;;;12.23;8.40;;;;;;;;;;5095746;28;20581;-60
2021/11/02 17:43:33;;;;;;;8.90;5.67;;;11.20;1.00;;;;;;5093559;28;20956;-60
2021/11/02 17:46:00;;;;;;;6.93;5.60;;;11.20;1.00;;;;;;5098693;28;20556;-61
2021/11/02 17:48:27;;;;;;;5.87;5.23;;;10.90;1.00;;;;;;5113349;28;20471;-62
2021/11/02 17:50:53;;;;;;;5.13;4.67;;;;;;;;;;5113885;28;20419;-61
2021/11/02 17:53:18;;;;;;;5.80;4.37;;;11.30;1.00;;;;;;5113612;28;20407;-61
2021/11/02 17:55:45;;;;;;;6.03;5.00;;;;;;;;;;5113663;28;20443;-60
2021/11/02 17:58:11;;;;;;;9.60;6.00;;;;;;;;;;5113952;28;20998;-61
2021/11/02 18:00:38;;;;;;;11.57;6.40;;;11.10;1.00;;;;;;5100399;28;20424;-60
2021/11/02 18:03:04;;;;;;;6.80;6.03;;;;;;;;;;5092937;28;20430;-59
2021/11/02 18:05:31;;;;;;;11.03;8.83;;;10.80;1.00;;;;;;5093175;28;20455;-61
2021/11/02 18:08:01;;;;;;;47.27;31.67;;;10.90;1.00;;;;;;5092843;28;20404;-60
2021/11/02 18:10:28;;;;;;;29.63;18.97;;;11.00;1.00;;;;;;5093024;28;20873;-62
2021/11/02 18:12:55;;;;;;;22.23;16.27;;;10.70;1.00;;;;;;5097491;28;20433;-60
2021/11/02 18:15:20;;;;;;;24.03;18.07;;;10.90;1.00;;;;;;5093915;28;20453;-60
2021/11/02 18:17:48;;;;;;;19.90;17.07;;;11.00;1.00;;;;;;5092665;28;20559;-61
2021/11/02 18:20:16;;;;;;;17.43;12.33;;;10.70;1.00;;;;;;5108108;28;20178;-60
2021/11/02 18:22:43;;;;;;;14.60;10.93;;;10.80;1.00;;;;;;5112936;28;20873;-61
2021/11/02 18:25:10;;;;;;;14.93;11.57;;;;;;;;;;5112091;28;20805;-61